createdAt,value
2019-04-19T00:00:24.493Z,14.20
2019-04-19T00:02:53.124Z,14.10
2019-04-19T00:05:36.697Z,14.10
2019-04-19T00:08:16.804Z,14.10
2019-04-19T00:10:40.867Z,14.10
2019-04-19T00:13:03.037Z,14.00
2019-04-19T00:15:28.755Z,14.00
2019-04-19T00:17:59.914Z,13.90
2019-04-19T00:20:43.099Z,13.90
2019-04-19T00:23:05.142Z,13.90
2019-04-19T00:25:23.829Z,13.80
2019-04-19T00:27:55.605Z,13.80
2019-04-19T00:30:32.575Z,13.70
2019-04-19T00:33:04.654Z,13.70
2019-04-19T00:35:18.692Z,13.70
2019-04-19T00:37:46.861Z,13.70
2019-04-19T00:40:39.144Z,13.70
2019-04-19T00:43:37.810Z,13.70
2019-04-19T00:46:05.892Z,13.50
2019-04-19T00:48:36.433Z,13.50
2019-04-19T00:51:02.305Z,13.50
2019-04-19T00:53:28.769Z,13.60
2019-04-19T00:55:58.828Z,13.50
2019-04-19T00:58:22.630Z,13.50
2019-04-19T01:00:44.604Z,13.40
2019-04-19T01:03:14.651Z,13.50
2019-04-19T01:05:48.229Z,13.50
2019-04-19T01:08:13.952Z,13.40
2019-04-19T01:10:51.337Z,13.40
2019-04-19T01:13:17.833Z,13.30
2019-04-19T01:15:51.210Z,13.30
2019-04-19T01:18:20.229Z,13.20
2019-04-19T01:20:37.384Z,13.20
2019-04-19T01:23:10.156Z,13.20
2019-04-19T01:25:35.205Z,13.10
2019-04-19T01:28:07.154Z,13.10
2019-04-19T01:30:36.380Z,13.10
2019-04-19T01:33:03.680Z,13.10
2019-04-19T01:35:32.714Z,13.10
2019-04-19T01:38:02.747Z,13.10
2019-04-19T01:40:52.154Z,13.10
2019-04-19T01:43:22.250Z,13.00
2019-04-19T01:45:54.403Z,13.10
2019-04-19T01:48:36.472Z,13.10
2019-04-19T01:51:08.674Z,13.10
2019-04-19T01:53:39.752Z,13.10
2019-04-19T01:55:52.338Z,13.10
2019-04-19T01:58:21.294Z,13.30
2019-04-19T02:00:52.331Z,13.10
2019-04-19T02:03:18.721Z,13.10
2019-04-19T02:05:52.616Z,13.10
2019-04-19T02:08:16.511Z,12.90
2019-04-19T02:11:33.656Z,12.90
2019-04-19T02:14:00.955Z,13.00
2019-04-19T02:16:23.322Z,12.90
2019-04-19T02:18:49.378Z,12.80
2019-04-19T02:21:22.662Z,12.90
2019-04-19T02:23:51.242Z,12.80
2019-04-19T02:26:19.270Z,12.80
2019-04-19T02:28:45.697Z,12.80
2019-04-19T02:31:39.240Z,12.70
2019-04-19T02:34:15.623Z,12.60
2019-04-19T02:36:47.907Z,12.70
2019-04-19T02:39:12.211Z,12.60
2019-04-19T02:41:34.626Z,12.60
2019-04-19T02:44:04.139Z,12.60
2019-04-19T02:46:42.922Z,12.60
2019-04-19T02:49:11.301Z,12.60
2019-04-19T02:51:33.042Z,12.50
2019-04-19T02:54:02.797Z,12.50
2019-04-19T02:56:59.843Z,12.40
2019-04-19T02:59:32.146Z,12.30
2019-04-19T03:02:04.523Z,12.40
2019-04-19T03:06:41.593Z,12.40
2019-04-19T03:09:05.132Z,12.30
2019-04-19T03:11:48.483Z,12.30
2019-04-19T03:14:11.933Z,12.40
2019-04-19T03:16:52.409Z,12.40
2019-04-19T03:19:14.450Z,12.40
2019-04-19T03:21:41.801Z,12.20
2019-04-19T03:24:14.462Z,12.30
2019-04-19T03:26:42.632Z,12.30
2019-04-19T03:29:00.033Z,12.30
2019-04-19T03:34:20.506Z,12.20
2019-04-19T03:36:42.591Z,12.30
2019-04-19T03:39:19.132Z,12.20
2019-04-19T03:42:03.169Z,12.20
2019-04-19T03:44:25.296Z,12.20
2019-04-19T03:47:06.368Z,12.10
2019-04-19T03:49:30.467Z,12.10
2019-04-19T03:52:04.673Z,12.20
2019-04-19T03:54:23.623Z,12.20
2019-04-19T03:56:49.099Z,12.20
2019-04-19T03:59:04.857Z,12.20
2019-04-19T04:01:37.810Z,12.10
2019-04-19T04:04:08.751Z,12.20
2019-04-19T04:06:36.635Z,12.00
2019-04-19T04:09:14.266Z,11.90
2019-04-19T04:11:56.080Z,12.00
2019-04-19T04:14:49.518Z,12.20
2019-04-19T04:17:09.923Z,12.00
2019-04-19T04:19:37.668Z,12.00
2019-04-19T04:22:07.696Z,12.00
2019-04-19T04:24:39.794Z,12.00
2019-04-19T04:27:10.386Z,12.00
2019-04-19T04:29:40.180Z,11.90
2019-04-19T04:32:12.776Z,11.90
2019-04-19T04:34:47.002Z,11.90
2019-04-19T04:37:17.567Z,11.90
2019-04-19T04:39:30.472Z,11.80
2019-04-19T04:42:08.688Z,11.90
2019-04-19T04:44:50.958Z,12.00
2019-04-19T04:47:28.707Z,12.00
2019-04-19T04:50:48.295Z,12.00
2019-04-19T04:53:01.391Z,11.90
2019-04-19T04:55:32.713Z,11.80
2019-04-19T04:58:02.760Z,11.90
2019-04-19T05:00:35.040Z,12.00
2019-04-19T05:03:13.756Z,11.90
2019-04-19T05:05:43.273Z,12.00
2019-04-19T05:08:20.422Z,12.20
2019-04-19T05:10:40.932Z,12.10
2019-04-19T05:15:41.670Z,12.10
2019-04-19T05:18:20.463Z,12.20
2019-04-19T05:20:39.795Z,12.30
2019-04-19T05:23:09.683Z,12.20
2019-04-19T05:25:41.795Z,12.20
2019-04-19T05:28:09.573Z,12.30
2019-04-19T05:30:19.710Z,12.30
2019-04-19T05:32:57.855Z,12.30
2019-04-19T05:35:30.002Z,12.40
2019-04-19T05:38:14.837Z,12.40
2019-04-19T05:40:49.987Z,12.50
2019-04-19T05:43:48.685Z,12.50
2019-04-19T05:46:04.836Z,12.50
2019-04-19T05:48:21.317Z,12.50
2019-04-19T05:51:02.860Z,12.60
2019-04-19T05:53:17.999Z,12.70
2019-04-19T05:55:34.737Z,12.70
2019-04-19T05:58:14.573Z,12.80
2019-04-19T06:00:48.495Z,12.90
2019-04-19T06:03:10.367Z,12.90
2019-04-19T06:05:59.899Z,12.90
2019-04-19T06:08:09.437Z,13.00
2019-04-19T06:10:32.987Z,13.00
2019-04-19T06:13:02.793Z,13.20
2019-04-19T06:15:49.806Z,13.20
2019-04-19T06:18:31.836Z,13.20
2019-04-19T06:21:10.471Z,13.30
2019-04-19T06:23:38.676Z,13.50
2019-04-19T06:26:35.447Z,13.50
2019-04-19T06:28:44.214Z,13.50
2019-04-19T06:31:13.972Z,13.60
2019-04-19T06:33:32.444Z,13.70
2019-04-19T06:35:53.182Z,13.70
2019-04-19T06:38:13.918Z,13.80
2019-04-19T06:40:50.500Z,13.80
2019-04-19T06:43:16.904Z,13.80
2019-04-19T06:45:58.182Z,13.90
2019-04-19T06:48:14.973Z,13.90
2019-04-19T06:50:42.961Z,14.00
2019-04-19T06:53:10.050Z,14.10
2019-04-19T06:55:43.202Z,14.20
2019-04-19T06:58:14.080Z,14.40
2019-04-19T07:00:53.776Z,14.30
2019-04-19T07:03:09.051Z,14.50
2019-04-19T07:05:46.176Z,14.60
2019-04-19T07:08:43.491Z,14.70
2019-04-19T07:10:58.949Z,14.70
2019-04-19T07:13:17.479Z,14.80
2019-04-19T07:15:59.067Z,15.10
2019-04-19T07:18:17.789Z,15.20
2019-04-19T07:20:51.467Z,15.40
2019-04-19T07:23:16.145Z,15.50
2019-04-19T07:25:55.517Z,15.70
2019-04-19T07:28:08.579Z,15.80
2019-04-19T07:30:28.865Z,16.00
2019-04-19T07:33:04.132Z,16.10
2019-04-19T07:35:47.337Z,16.30
2019-04-19T07:38:22.094Z,16.50
2019-04-19T07:40:45.585Z,16.70
2019-04-19T07:43:10.579Z,16.90
2019-04-19T07:45:55.131Z,17.10
2019-04-19T07:48:11.193Z,17.30
2019-04-19T07:50:48.326Z,17.30
2019-04-19T07:53:05.496Z,17.70
2019-04-19T07:55:40.175Z,17.90
2019-04-19T08:01:12.666Z,18.10
2019-04-19T08:03:38.321Z,18.40
2019-04-19T08:06:05.122Z,18.60
2019-04-19T08:08:34.166Z,18.80
2019-04-19T08:18:41.081Z,19.40
2019-04-19T08:28:09.904Z,20.20
2019-04-19T08:30:32.105Z,20.60
2019-04-19T08:32:51.449Z,20.70
2019-04-19T08:35:19.391Z,20.90
2019-04-19T08:37:48.963Z,20.90
2019-04-19T08:40:33.473Z,21.00
2019-04-19T08:43:01.831Z,21.10
2019-04-19T08:45:32.925Z,21.40
2019-04-19T08:48:14.902Z,21.60
2019-04-19T08:50:47.452Z,21.70
2019-04-19T08:53:26.780Z,21.80
2019-04-19T08:55:54.397Z,21.90
2019-04-19T08:58:23.866Z,21.80
2019-04-19T09:01:13.791Z,22.20
2019-04-19T09:03:19.205Z,22.10
2019-04-19T09:06:10.967Z,22.20
2019-04-19T09:08:30.982Z,22.40
2019-04-19T09:10:55.991Z,22.60
2019-04-19T09:13:39.195Z,22.80
2019-04-19T09:15:54.957Z,23.00
2019-04-19T09:18:31.624Z,23.00
2019-04-19T09:20:50.461Z,22.80
2019-04-19T09:23:16.760Z,23.10
2019-04-19T09:26:04.603Z,23.10
2019-04-19T09:28:46.094Z,23.30
2019-04-19T09:31:04.390Z,23.70
2019-04-19T09:33:25.623Z,24.00
2019-04-19T09:35:55.197Z,24.00
2019-04-19T09:38:26.946Z,24.20
2019-04-19T09:40:50.478Z,24.70
2019-04-19T09:43:28.247Z,24.70
2019-04-19T09:45:42.792Z,25.20
2019-04-19T09:48:31.746Z,25.50
2019-04-19T09:50:55.068Z,25.60
2019-04-19T09:53:40.031Z,25.80
2019-04-19T09:56:02.250Z,26.00
2019-04-19T09:58:25.278Z,25.80
2019-04-19T10:00:36.764Z,25.30
2019-04-19T10:03:14.282Z,25.40
2019-04-19T10:05:34.771Z,25.50
2019-04-19T10:08:02.302Z,25.70
2019-04-19T10:10:29.563Z,26.40
2019-04-19T10:12:57.969Z,26.70
2019-04-19T10:15:43.239Z,27.10
2019-04-19T10:18:10.750Z,27.40
2019-04-19T10:20:46.975Z,27.50
2019-04-19T10:23:15.418Z,27.80
2019-04-19T10:25:51.416Z,27.30
2019-04-19T10:28:12.262Z,27.50
2019-04-19T10:30:46.603Z,27.90
2019-04-19T10:33:14.225Z,27.50
2019-04-19T10:35:41.619Z,27.70
2019-04-19T10:38:09.530Z,27.80
2019-04-19T10:40:37.622Z,27.80
2019-04-19T10:43:05.215Z,28.40
2019-04-19T10:45:32.559Z,28.40
2019-04-19T10:47:59.967Z,28.30
2019-04-19T10:50:41.998Z,28.10
2019-04-19T10:53:03.796Z,28.30
2019-04-19T10:55:36.253Z,28.60
2019-04-19T10:58:03.704Z,29.00
2019-04-19T11:00:31.400Z,28.90
2019-04-19T11:02:59.001Z,29.20
2019-04-19T11:05:29.117Z,29.50
2019-04-19T11:07:56.459Z,30.50
2019-04-19T11:10:25.346Z,29.60
2019-04-19T11:12:52.709Z,29.40
2019-04-19T11:15:20.285Z,29.90
2019-04-19T11:17:48.275Z,29.30
2019-04-19T11:20:26.350Z,29.40
2019-04-19T11:22:45.969Z,29.80
2019-04-19T11:25:14.372Z,29.80
2019-04-19T11:27:42.875Z,29.60
2019-04-19T11:30:32.955Z,29.60
2019-04-19T11:33:03.178Z,30.00
2019-04-19T11:35:37.216Z,31.80
2019-04-19T11:38:04.949Z,32.40
2019-04-19T11:40:33.148Z,33.60
2019-04-19T11:43:01.640Z,35.40
2019-04-19T11:45:30.193Z,36.90
2019-04-19T11:47:58.811Z,37.10
2019-04-19T11:50:27.484Z,38.70
2019-04-19T11:53:27.021Z,39.40
2019-04-19T11:56:22.789Z,39.20
2019-04-19T11:58:53.024Z,37.50
2019-04-19T12:01:24.319Z,36.60
2019-04-19T12:03:52.145Z,37.60
2019-04-19T12:06:20.462Z,39.40
2019-04-19T12:08:49.574Z,39.10
2019-04-19T12:11:22.286Z,39.90
2019-04-19T12:13:50.051Z,41.20
2019-04-19T12:16:17.591Z,42.30
2019-04-19T12:18:45.531Z,42.40
2019-04-19T12:21:15.349Z,43.30
2019-04-19T12:23:42.771Z,44.10
2019-04-19T12:26:11.486Z,43.50
2019-04-19T12:28:39.692Z,43.50
2019-04-19T12:31:07.373Z,44.00
2019-04-19T12:33:35.361Z,42.60
2019-04-19T12:36:03.350Z,42.30
2019-04-19T12:38:30.740Z,42.40
2019-04-19T12:41:01.671Z,42.60
2019-04-19T12:43:29.945Z,42.80
2019-04-19T12:45:57.413Z,43.50
2019-04-19T12:48:25.738Z,44.70
2019-04-19T12:50:53.604Z,45.70
2019-04-19T12:53:21.412Z,43.60
2019-04-19T12:55:48.814Z,42.90
2019-04-19T12:58:16.096Z,42.70
2019-04-19T13:01:01.852Z,41.90
2019-04-19T13:03:48.259Z,42.60
2019-04-19T13:06:19.620Z,45.40
2019-04-19T13:08:47.478Z,46.20
2019-04-19T13:11:15.172Z,47.20
2019-04-19T13:13:43.719Z,46.70
2019-04-19T13:16:12.356Z,48.10
2019-04-19T13:18:40.297Z,47.80
2019-04-19T13:21:08.162Z,47.00
2019-04-19T13:23:35.531Z,46.50
2019-04-19T13:26:03.093Z,46.40
2019-04-19T13:28:31.240Z,45.70
2019-04-19T13:31:00.630Z,45.90
2019-04-19T13:33:28.347Z,46.70
2019-04-19T13:35:57.215Z,47.00
2019-04-19T13:38:29.147Z,46.70
2019-04-19T13:41:27.178Z,45.40
2019-04-19T13:43:54.508Z,45.40
2019-04-19T13:46:22.339Z,46.30
2019-04-19T13:48:50.554Z,45.60
2019-04-19T13:51:18.484Z,46.00
2019-04-19T13:53:47.353Z,46.40
2019-04-19T13:56:14.894Z,45.20
2019-04-19T13:58:43.357Z,43.80
2019-04-19T14:01:10.823Z,43.80
2019-04-19T14:03:39.391Z,44.80
2019-04-19T14:06:08.453Z,44.60
2019-04-19T14:08:37.325Z,44.00
2019-04-19T14:11:05.099Z,42.00
2019-04-19T14:13:32.938Z,42.30
2019-04-19T14:16:00.715Z,41.40
2019-04-19T14:18:28.827Z,42.30
2019-04-19T14:20:57.515Z,43.40
2019-04-19T14:23:25.772Z,43.50
2019-04-19T14:25:53.182Z,43.40
2019-04-19T14:28:21.137Z,42.50
2019-04-19T14:30:49.200Z,41.50
2019-04-19T14:33:17.044Z,40.90
2019-04-19T14:35:44.484Z,40.90
2019-04-19T14:38:11.874Z,38.90
2019-04-19T14:40:39.791Z,37.30
2019-04-19T14:43:07.148Z,35.20
2019-04-19T14:45:34.579Z,32.50
2019-04-19T14:48:02.862Z,31.50
2019-04-19T14:50:43.516Z,30.50
2019-04-19T14:52:59.401Z,29.80
2019-04-19T14:55:27.557Z,28.80
2019-04-19T14:57:56.130Z,28.10
2019-04-19T15:00:25.138Z,27.70
2019-04-19T15:03:00.725Z,27.40
2019-04-19T15:05:31.913Z,26.80
2019-04-19T15:07:59.340Z,26.40
2019-04-19T15:10:27.329Z,25.90
2019-04-19T15:12:56.583Z,25.60
2019-04-19T15:15:24.660Z,25.40
2019-04-19T15:17:52.151Z,25.30
2019-04-19T15:20:22.258Z,25.00
2019-04-19T15:22:50.472Z,24.90
2019-04-19T15:25:20.009Z,24.80
2019-04-19T15:27:48.619Z,24.60
2019-04-19T15:30:17.064Z,24.60
2019-04-19T15:32:44.608Z,24.50
2019-04-19T15:35:14.439Z,24.40
2019-04-19T15:37:41.796Z,24.40
2019-04-19T15:40:11.908Z,24.40
2019-04-19T15:42:40.793Z,24.30
2019-04-19T15:45:09.280Z,24.20
2019-04-19T15:47:36.934Z,24.10
2019-04-19T15:50:06.173Z,24.10
2019-04-19T15:52:35.784Z,24.10
2019-04-19T15:55:03.927Z,24.00
2019-04-19T15:57:32.214Z,23.90
2019-04-19T16:00:00.091Z,23.80
2019-04-19T16:02:42.179Z,23.80
2019-04-19T16:05:28.360Z,23.70
2019-04-19T16:08:18.165Z,23.80
2019-04-19T16:11:04.620Z,23.90
2019-04-19T16:13:32.188Z,23.70
2019-04-19T16:16:00.333Z,23.70
2019-04-19T16:18:28.595Z,23.60
2019-04-19T16:20:56.966Z,23.50
2019-04-19T16:23:24.386Z,23.60
2019-04-19T16:25:52.894Z,23.60
2019-04-19T16:28:21.322Z,23.70
2019-04-19T16:30:48.835Z,23.50
2019-04-19T16:33:16.083Z,23.50
2019-04-19T16:35:44.546Z,23.50
2019-04-19T16:38:12.045Z,23.50
2019-04-19T16:40:40.535Z,23.40
2019-04-19T16:43:07.875Z,23.20
2019-04-19T16:45:35.743Z,23.30
2019-04-19T16:48:04.262Z,23.30
2019-04-19T16:50:32.487Z,23.10
2019-04-19T16:53:03.191Z,23.20
2019-04-19T16:55:29.633Z,23.20
2019-04-19T16:57:57.051Z,23.10
2019-04-19T17:00:36.511Z,23.10
2019-04-19T17:03:04.975Z,23.00
2019-04-19T17:05:32.720Z,23.10
2019-04-19T17:08:01.497Z,22.90
2019-04-19T17:10:28.896Z,22.90
2019-04-19T17:12:56.287Z,22.90
2019-04-19T17:15:48.880Z,22.80
2019-04-19T17:18:34.666Z,22.80
2019-04-19T17:21:05.867Z,22.70
2019-04-19T17:23:33.336Z,22.70
2019-04-19T17:26:01.254Z,22.60
2019-04-19T17:28:28.735Z,22.50
2019-04-19T17:30:56.163Z,22.50
2019-04-19T17:33:24.211Z,22.40
2019-04-19T17:35:52.324Z,22.30
2019-04-19T17:38:30.258Z,22.20
2019-04-19T17:40:50.408Z,22.20
2019-04-19T17:43:17.852Z,22.20
2019-04-19T17:45:46.266Z,22.10
2019-04-19T17:48:14.519Z,22.00
2019-04-19T17:50:41.946Z,21.90
2019-04-19T17:53:09.287Z,21.80
2019-04-19T17:55:42.439Z,21.70
2019-04-19T17:58:05.700Z,21.70
2019-04-19T18:00:32.932Z,21.60
2019-04-19T18:03:01.291Z,21.50
2019-04-19T18:05:29.766Z,21.50
2019-04-19T18:07:58.052Z,21.50
2019-04-19T18:10:31.665Z,21.40
2019-04-19T18:12:55.110Z,21.30
2019-04-19T18:15:23.616Z,21.30
2019-04-19T18:17:56.550Z,21.20
2019-04-19T18:20:23.002Z,21.10
2019-04-19T18:23:00.715Z,21.00
2019-04-19T18:25:20.007Z,20.90
2019-04-19T18:27:53.088Z,20.80
2019-04-19T18:30:17.921Z,20.70
2019-04-19T18:33:18.010Z,20.70
2019-04-19T18:35:45.583Z,20.60
2019-04-19T18:38:19.553Z,20.50
2019-04-19T18:40:42.861Z,20.40
2019-04-19T18:43:22.271Z,20.30
2019-04-19T18:45:42.181Z,20.20
2019-04-19T18:48:09.373Z,20.10
2019-04-19T18:50:41.731Z,20.00
2019-04-19T18:53:17.158Z,19.90
2019-04-19T18:55:41.588Z,19.80
2019-04-19T18:58:04.555Z,19.80
2019-04-19T19:00:37.855Z,19.60
2019-04-19T19:03:03.713Z,19.60
2019-04-19T19:05:30.240Z,19.50
2019-04-19T19:08:02.003Z,19.50
2019-04-19T19:10:34.375Z,19.50
2019-04-19T19:12:56.246Z,19.40
2019-04-19T19:15:29.673Z,19.30
2019-04-19T19:17:54.908Z,19.30
2019-04-19T19:20:32.434Z,19.20
2019-04-19T19:23:18.181Z,19.10
2019-04-19T19:25:43.651Z,19.10
2019-04-19T19:28:06.249Z,19.00
2019-04-19T19:30:35.247Z,18.90
2019-04-19T19:33:10.989Z,18.70
2019-04-19T19:35:33.297Z,18.80
2019-04-19T19:38:08.373Z,18.80
2019-04-19T19:40:39.072Z,18.70
2019-04-19T19:43:19.062Z,18.60
2019-04-19T19:45:43.923Z,18.60
2019-04-19T19:51:12.683Z,18.40
2019-04-19T19:53:58.154Z,18.30
2019-04-19T19:56:19.787Z,18.20
2019-04-19T19:58:29.877Z,18.20
2019-04-19T20:01:07.282Z,18.10
2019-04-19T20:03:26.454Z,18.10
2019-04-19T20:05:48.092Z,18.00
2019-04-19T20:08:22.157Z,18.10
2019-04-19T20:10:47.845Z,18.00
2019-04-19T20:13:16.382Z,17.90
2019-04-19T20:15:45.947Z,17.80
2019-04-19T20:18:12.916Z,17.80
2019-04-19T20:20:43.022Z,17.80
2019-04-19T20:23:19.373Z,17.70
2019-04-19T20:25:50.013Z,17.80
2019-04-19T20:28:09.188Z,17.60
2019-04-19T20:30:41.785Z,17.60
2019-04-19T20:33:08.362Z,17.50
2019-04-19T20:35:36.694Z,17.60
2019-04-19T20:38:07.904Z,17.50
2019-04-19T20:40:34.280Z,17.50
2019-04-19T20:43:20.806Z,17.40
2019-04-19T20:45:39.944Z,17.30
2019-04-19T20:48:07.918Z,17.30
2019-04-19T20:50:44.896Z,17.30
2019-04-19T20:53:21.987Z,17.30
2019-04-19T20:56:19.898Z,17.10
2019-04-19T20:58:24.289Z,17.20
2019-04-19T21:00:50.449Z,17.10
2019-04-19T21:03:26.257Z,17.00
2019-04-19T21:05:50.672Z,16.90
2019-04-19T21:08:20.726Z,17.00
2019-04-19T21:10:52.025Z,17.00
2019-04-19T21:13:17.715Z,16.90
2019-04-19T21:15:45.005Z,17.00
2019-04-19T21:18:19.041Z,16.90
2019-04-19T21:20:42.596Z,16.90
2019-04-19T21:23:16.130Z,16.90
2019-04-19T21:25:46.490Z,16.90
2019-04-19T21:28:10.509Z,16.80
2019-04-19T21:30:40.066Z,16.80
2019-04-19T21:33:11.722Z,16.80
2019-04-19T21:35:37.757Z,16.70
2019-04-19T21:38:09.815Z,16.70
2019-04-19T21:40:38.020Z,16.60
2019-04-19T21:43:07.282Z,16.60
2019-04-19T21:45:37.583Z,16.60
2019-04-19T21:48:03.350Z,16.60
2019-04-19T21:50:38.439Z,16.60
2019-04-19T21:53:07.439Z,16.50
2019-04-19T21:55:37.382Z,16.50
2019-04-19T21:58:07.007Z,16.50
2019-04-19T22:00:58.701Z,16.50
2019-04-19T22:03:24.945Z,16.40
2019-04-19T22:05:52.243Z,16.40
2019-04-19T22:08:22.588Z,16.50
2019-04-19T22:10:50.407Z,16.30
2019-04-19T22:13:18.047Z,16.30
2019-04-19T22:15:51.023Z,16.10
2019-04-19T22:18:15.237Z,16.20
2019-04-19T22:20:45.138Z,16.10
2019-04-19T22:23:14.070Z,16.10
2019-04-19T22:25:51.345Z,16.00
2019-04-19T22:28:11.813Z,15.90
2019-04-19T22:30:45.453Z,15.90
2019-04-19T22:33:09.804Z,16.00
2019-04-19T22:35:37.780Z,16.00
2019-04-19T22:38:11.115Z,15.90
2019-04-19T22:40:34.563Z,15.80
2019-04-19T22:43:06.286Z,15.60
2019-04-19T22:45:32.677Z,15.70
2019-04-19T22:48:06.553Z,15.80
2019-04-19T22:50:33.758Z,15.70
2019-04-19T22:52:58.833Z,15.70
2019-04-19T22:55:26.750Z,15.70
2019-04-19T22:57:56.712Z,15.60
2019-04-19T23:00:30.624Z,15.70
2019-04-19T23:03:05.744Z,15.70
2019-04-19T23:05:41.350Z,15.60
2019-04-19T23:08:05.936Z,15.50
2019-04-19T23:10:41.962Z,15.60
2019-04-19T23:13:05.190Z,15.50
2019-04-19T23:15:35.653Z,15.60
2019-04-19T23:18:03.343Z,15.50
2019-04-19T23:20:31.396Z,15.50
2019-04-19T23:22:58.852Z,15.50
2019-04-19T23:25:33.608Z,15.50
2019-04-19T23:28:08.072Z,15.50
2019-04-19T23:30:30.480Z,15.50
2019-04-19T23:32:59.175Z,15.50
2019-04-19T23:35:30.719Z,15.50
2019-04-19T23:37:53.739Z,15.60
2019-04-19T23:40:28.267Z,15.50
2019-04-19T23:42:52.018Z,15.60
2019-04-19T23:45:20.830Z,15.40
2019-04-19T23:47:51.529Z,15.30
2019-04-19T23:50:22.679Z,15.40
2019-04-19T23:52:52.811Z,15.30
2019-04-19T23:55:16.640Z,15.30
2019-04-19T23:57:48.779Z,15.30
